Time,TemperatureF,DewpointF,PressureIn,WindDirection,WindDirectionDegrees,WindSpeedMPH,WindSpeedGustMPH,Humidity,HourlyPrecipIn,Conditions,Clouds,dailyrainin,SoftwareType,DateUTC
2013-08-18 00:02:00,-999.0,-99.9,30.15,ENE,69,0.0,2.0,-999,0.00,,,0.00,,2013-08-18 04:02:00,
2013-08-18 00:12:00,65.0,58.0,30.15,ENE,69,0.0,2.0,77,0.00,,,0.00,,2013-08-18 04:12:00,
2013-08-18 00:23:00,65.0,58.0,30.15,ENE,69,1.0,2.0,77,0.00,,,0.00,,2013-08-18 04:23:00,
2013-08-18 00:42:00,65.0,58.0,30.15,ENE,71,0.0,3.0,77,0.00,,,0.00,,2013-08-18 04:42:00,
2013-08-18 00:53:00,65.0,58.0,30.15,ENE,71,0.0,2.0,77,0.00,,,0.00,,2013-08-18 04:53:00,
2013-08-18 01:12:00,65.0,58.0,30.15,ENE,71,0.0,3.0,77,0.00,,,0.00,,2013-08-18 05:12:00,
2013-08-18 01:22:00,64.0,57.0,30.15,ENE,71,0.0,1.0,79,0.00,,,0.00,,2013-08-18 05:22:00,
2013-08-18 01:42:00,63.0,57.0,30.15,ENE,71,0.0,1.0,80,0.00,,,0.00,,2013-08-18 05:42:00,
2013-08-18 01:52:00,63.0,57.0,30.15,East,80,0.0,3.0,81,0.00,,,0.00,,2013-08-18 05:52:00,
2013-08-18 02:11:00,63.0,56.0,30.15,ENE,71,0.0,2.0,79,0.00,,,0.00,,2013-08-18 06:11:00,
2013-08-18 02:21:00,64.0,57.0,30.14,East,80,1.0,3.0,77,0.00,,,0.00,,2013-08-18 06:21:00,
2013-08-18 02:42:00,64.0,56.0,30.15,ENE,77,2.0,4.0,76,0.00,,,0.00,,2013-08-18 06:42:00,
2013-08-18 02:52:00,64.0,57.0,30.15,East,82,2.0,7.0,77,0.00,,,0.00,,2013-08-18 06:52:00,
2013-08-18 03:11:00,63.0,56.0,30.14,ENE,69,1.0,4.0,77,0.00,,,0.00,,2013-08-18 07:11:00,
2013-08-18 03:22:00,63.0,56.0,30.15,ENE,67,0.0,3.0,77,0.00,,,0.00,,2013-08-18 07:22:00,
2013-08-18 03:42:00,63.0,56.0,30.15,East,83,0.0,2.0,77,0.00,,,0.00,,2013-08-18 07:42:00,
2013-08-18 03:52:00,63.0,56.0,30.14,East,83,0.0,1.0,78,0.00,,,0.00,,2013-08-18 07:52:00,
2013-08-18 04:12:00,62.0,55.0,30.14,East,83,0.0,1.0,79,0.00,,,0.00,,2013-08-18 08:12:00,
2013-08-18 04:21:00,62.0,56.0,30.14,East,82,0.0,2.0,80,0.00,,,0.00,,2013-08-18 08:21:00,
2013-08-18 04:52:00,60.0,54.0,30.14,East,82,0.0,0.0,81,0.00,,,0.00,,2013-08-18 08:52:00,
2013-08-18 05:11:00,59.0,54.0,30.13,East,82,0.0,0.0,84,0.00,,,0.00,,2013-08-18 09:11:00,
2013-08-18 05:21:00,59.0,55.0,30.14,East,82,0.0,1.0,86,0.00,,,0.00,,2013-08-18 09:21:00,
2013-08-18 05:43:00,59.0,55.0,30.13,ENE,72,0.0,2.0,86,0.00,,,0.00,,2013-08-18 09:43:00,
2013-08-18 05:53:00,59.0,55.0,30.13,ENE,72,0.0,2.0,86,0.00,,,0.00,,2013-08-18 09:53:00,
2013-08-18 06:13:00,60.0,55.0,30.13,East,82,1.0,5.0,84,0.00,,,0.00,,2013-08-18 10:13:00,
2013-08-18 06:23:00,60.0,55.0,30.14,East,94,0.0,2.0,84,0.00,,,0.00,,2013-08-18 10:23:00,
2013-08-18 06:42:00,60.0,55.0,30.14,East,81,0.0,2.0,85,0.00,,,0.00,,2013-08-18 10:42:00,
2013-08-18 06:52:00,60.0,55.0,30.14,ENE,78,0.0,2.0,85,0.00,,,0.00,,2013-08-18 10:52:00,
2013-08-18 07:11:00,59.0,55.0,30.15,ENE,78,0.0,2.0,86,0.00,,,0.00,,2013-08-18 11:11:00,
2013-08-18 07:22:00,58.0,54.0,30.15,ENE,78,0.0,1.0,87,0.00,,,0.00,,2013-08-18 11:22:00,
2013-08-18 07:42:00,57.0,53.0,30.15,ENE,78,0.0,1.0,88,0.00,,,0.00,,2013-08-18 11:42:00,
2013-08-18 07:52:00,57.0,54.0,30.16,ENE,78,0.0,2.0,90,0.00,,,0.00,,2013-08-18 11:52:00,
2013-08-18 08:11:00,57.0,54.0,30.16,ENE,78,0.0,1.0,90,0.00,,,0.00,,2013-08-18 12:11:00,
2013-08-18 08:21:00,58.0,55.0,30.16,ENE,78,0.0,1.0,89,0.00,,,0.00,,2013-08-18 12:21:00,
2013-08-18 08:42:00,59.0,56.0,30.17,East,82,0.0,2.0,89,0.00,,,0.00,,2013-08-18 12:42:00,
2013-08-18 08:52:00,60.0,56.0,30.17,ENE,67,0.0,3.0,88,0.00,,,0.00,,2013-08-18 12:52:00,
2013-08-18 09:11:00,61.0,57.0,30.17,East,92,0.0,2.0,87,0.00,,,0.00,,2013-08-18 13:11:00,
2013-08-18 09:21:00,63.0,58.0,30.18,East,88,1.0,5.0,84,0.00,,,0.00,,2013-08-18 13:21:00,
2013-08-18 09:42:00,65.0,59.0,30.18,SSE,151,1.0,4.0,82,0.00,,,0.00,,2013-08-18 13:42:00,
2013-08-18 09:52:00,66.0,60.0,30.18,SE,128,1.0,4.0,80,0.00,,,0.00,,2013-08-18 13:52:00,
2013-08-18 10:11:00,68.0,61.0,30.18,ESE,113,2.0,4.0,78,0.00,,,0.00,,2013-08-18 14:11:00,
2013-08-18 10:42:00,70.0,61.0,30.18,SE,137,0.0,3.0,74,0.00,,,0.00,,2013-08-18 14:42:00,
2013-08-18 10:53:00,71.0,62.0,30.18,South,175,0.0,2.0,72,0.00,,,0.00,,2013-08-18 14:53:00,
2013-08-18 11:11:00,72.0,62.0,30.18,North,10,0.0,2.0,70,0.00,,,0.00,,2013-08-18 15:11:00,
2013-08-18 11:22:00,74.0,63.0,30.18,East,79,2.0,3.0,68,0.00,,,0.00,,2013-08-18 15:22:00,
2013-08-18 11:43:00,74.0,63.0,30.18,North,11,0.0,3.0,68,0.00,,,0.00,,2013-08-18 15:43:00,
2013-08-18 11:53:00,75.0,63.0,30.18,East,90,3.0,5.0,66,0.00,,,0.00,,2013-08-18 15:53:00,
2013-08-18 12:13:00,76.0,63.0,30.17,SE,141,3.0,6.0,65,0.00,,,0.00,,2013-08-18 16:13:00,
2013-08-18 12:23:00,76.0,64.0,30.17,East,100,2.0,5.0,66,0.00,,,0.00,,2013-08-18 16:23:00,
2013-08-18 12:42:00,77.0,64.0,30.17,ENE,75,1.0,4.0,65,0.00,,,0.00,,2013-08-18 16:42:00,
2013-08-18 12:52:00,78.0,64.0,30.16,ESE,117,1.0,7.0,62,0.00,,,0.00,,2013-08-18 16:52:00,
2013-08-18 13:13:00,78.0,63.0,30.16,SSE,152,0.0,4.0,61,0.00,,,0.00,,2013-08-18 17:13:00,
2013-08-18 13:23:00,78.0,62.0,30.16,ENE,73,2.0,5.0,59,0.00,,,0.00,,2013-08-18 17:23:00,
2013-08-18 13:42:00,78.0,63.0,30.16,ESE,121,1.0,5.0,61,0.00,,,0.00,,2013-08-18 17:42:00,
2013-08-18 13:52:00,79.0,63.0,30.15,ESE,114,3.0,8.0,58,0.00,,,0.00,,2013-08-18 17:52:00,
2013-08-18 14:12:00,80.0,64.0,30.15,SE,144,1.0,6.0,59,0.00,,,0.00,,2013-08-18 18:12:00,
2013-08-18 14:21:00,80.0,64.0,30.14,SE,136,1.0,8.0,58,0.00,,,0.00,,2013-08-18 18:21:00,
2013-08-18 14:42:00,80.0,64.0,30.14,SE,128,1.0,7.0,59,0.00,,,0.00,,2013-08-18 18:42:00,
2013-08-18 14:52:00,81.0,63.0,30.14,ESE,118,1.0,7.0,55,0.00,,,0.00,,2013-08-18 18:52:00,
2013-08-18 15:11:00,81.0,63.0,30.13,ESE,123,1.0,9.0,55,0.00,,,0.00,,2013-08-18 19:11:00,
2013-08-18 15:22:00,82.0,65.0,30.12,South,185,2.0,8.0,57,0.00,,,0.00,,2013-08-18 19:22:00,
2013-08-18 15:42:00,81.0,63.0,30.12,SSW,193,1.0,5.0,54,0.00,,,0.00,,2013-08-18 19:42:00,
2013-08-18 15:52:00,81.0,62.0,30.12,ENE,68,4.0,10.0,53,0.00,,,0.00,,2013-08-18 19:52:00,
2013-08-18 16:12:00,80.0,61.0,30.11,ESE,106,2.0,5.0,53,0.00,,,0.00,,2013-08-18 20:12:00,
2013-08-18 16:22:00,80.0,63.0,30.11,South,181,1.0,4.0,56,0.00,,,0.00,,2013-08-18 20:22:00,
2013-08-18 16:52:00,81.0,62.0,30.11,SE,132,0.0,6.0,52,0.00,,,0.00,,2013-08-18 20:52:00,
2013-08-18 17:11:00,82.0,62.0,30.10,SSW,198,2.0,7.0,51,0.00,,,0.00,,2013-08-18 21:11:00,
2013-08-18 17:21:00,83.0,62.0,30.10,SSW,198,1.0,5.0,49,0.00,,,0.00,,2013-08-18 21:21:00,
2013-08-18 17:53:00,83.0,62.0,30.09,South,173,2.0,9.0,49,0.00,,,0.00,,2013-08-18 21:53:00,
2013-08-18 18:13:00,82.0,61.0,30.09,SE,142,2.0,6.0,49,0.00,,,0.00,,2013-08-18 22:13:00,
2013-08-18 18:23:00,82.0,62.0,30.09,SE,138,0.0,5.0,51,0.00,,,0.00,,2013-08-18 22:23:00,
2013-08-18 18:42:00,82.0,61.0,30.09,SSW,198,1.0,5.0,50,0.00,,,0.00,,2013-08-18 22:42:00,
2013-08-18 18:52:00,82.0,62.0,30.09,SW,217,1.0,5.0,51,0.00,,,0.00,,2013-08-18 22:52:00,
2013-08-18 19:11:00,82.0,62.0,30.09,South,173,0.0,3.0,51,0.00,,,0.00,,2013-08-18 23:11:00,
2013-08-18 19:22:00,82.0,63.0,30.09,South,186,0.0,4.0,52,0.00,,,0.00,,2013-08-18 23:22:00,
2013-08-18 19:42:00,81.0,61.0,30.09,SE,142,1.0,3.0,51,0.00,,,0.00,,2013-08-18 23:42:00,
2013-08-18 19:52:00,81.0,63.0,30.09,South,177,0.0,2.0,54,0.00,,,0.00,,2013-08-18 23:52:00,
2013-08-18 20:11:00,81.0,62.0,30.09,South,177,0.0,1.0,53,0.00,,,0.00,,2013-08-19 00:11:00,
2013-08-18 20:21:00,80.0,62.0,30.09,South,177,0.0,0.0,55,0.00,,,0.00,,2013-08-19 00:21:00,
2013-08-18 20:42:00,80.0,64.0,30.09,South,177,0.0,0.0,59,0.00,,,0.00,,2013-08-19 00:42:00,
2013-08-18 20:52:00,78.0,64.0,30.10,South,177,0.0,0.0,62,0.00,,,0.00,,2013-08-19 00:52:00,
2013-08-18 21:11:00,76.0,63.0,30.10,South,177,0.0,0.0,64,0.00,,,0.00,,2013-08-19 01:11:00,
2013-08-18 21:22:00,74.0,64.0,30.10,South,177,0.0,0.0,72,0.00,,,0.00,,2013-08-19 01:22:00,
2013-08-18 21:42:00,73.0,63.0,30.10,South,177,0.0,0.0,72,0.00,,,0.00,,2013-08-19 01:42:00,
2013-08-18 21:52:00,72.0,64.0,30.10,South,177,0.0,0.0,76,0.00,,,0.00,,2013-08-19 01:52:00,
2013-08-18 22:11:00,71.0,63.0,30.10,South,177,0.0,0.0,77,0.00,,,0.00,,2013-08-19 02:11:00,
2013-08-18 22:21:00,71.0,64.0,30.10,South,177,0.0,1.0,78,0.00,,,0.00,,2013-08-19 02:21:00,
2013-08-18 22:42:00,71.0,64.0,30.10,South,177,0.0,1.0,79,0.00,,,0.00,,2013-08-19 02:42:00,
2013-08-18 22:52:00,71.0,64.0,30.11,South,177,0.0,1.0,78,0.00,,,0.00,,2013-08-19 02:52:00,
2013-08-18 23:11:00,70.0,64.0,30.11,South,177,0.0,0.0,81,0.00,,,0.00,,2013-08-19 03:11:00,
2013-08-18 23:21:00,69.0,63.0,30.11,South,177,0.0,0.0,82,0.00,,,0.00,,2013-08-19 03:21:00,
2013-08-18 23:42:00,69.0,63.0,30.11,South,177,0.0,0.0,82,0.00,,,0.00,,2013-08-19 03:42:00,
2013-08-18 23:53:00,69.0,62.0,30.11,South,177,0.0,0.0,78,0.00,,,0.00,,2013-08-19 03:53:00,